createdAt,value
2023-03-11T00:02:30.746Z,95323.56
2023-03-11T00:06:31.898Z,95313.66
2023-03-11T00:10:39.354Z,95324.47
2023-03-11T00:14:39.804Z,95326.22
2023-03-11T00:18:40.119Z,95342.41
2023-03-11T00:22:40.474Z,95338.56
2023-03-11T00:26:43.603Z,95352.28
2023-03-11T00:30:45.948Z,95369.63
2023-03-11T00:34:46.643Z,95400.09
2023-03-11T00:38:47.117Z,95368.09
2023-03-11T00:42:50.857Z,95393.13
2023-03-11T00:46:51.505Z,95391.47
2023-03-11T00:50:51.887Z,95399.50
2023-03-11T00:54:52.673Z,95431.53
2023-03-11T00:58:56.746Z,95440.19
2023-03-11T01:03:00.053Z,95423.66
2023-03-11T01:07:00.725Z,95434.28
2023-03-11T01:11:01.961Z,95441.78
2023-03-11T01:15:07.687Z,95440.25
2023-03-11T01:19:08.596Z,95450.16
2023-03-11T01:23:09.999Z,95449.63
2023-03-11T01:27:10.994Z,95453.59
2023-03-11T01:31:15.477Z,95451.38
2023-03-11T01:35:17.192Z,95458.84
2023-03-11T01:39:18.122Z,95458.16
2023-03-11T01:43:58.167Z,95458.72
2023-03-11T01:48:05.805Z,95460.53
2023-03-11T01:52:11.848Z,95467.66
2023-03-11T01:56:22.634Z,95474.63
2023-03-11T02:00:24.771Z,95478.78
2023-03-11T02:04:30.630Z,95494.31
2023-03-11T02:08:34.960Z,95522.38
2023-03-11T02:12:40.571Z,95509.59
2023-03-11T02:16:42.186Z,95504.06
2023-03-11T02:20:57.521Z,95515.06
2023-03-11T02:25:06.911Z,95526.94
2023-03-11T02:29:14.059Z,95506.66
2023-03-11T02:33:17.314Z,95523.75
2023-03-11T02:37:22.143Z,95533.22
2023-03-11T02:41:30.353Z,95526.41
2023-03-11T02:45:34.823Z,95526.72
2023-03-11T02:49:36.888Z,95533.00
2023-03-11T02:53:45.910Z,95553.53
2023-03-11T02:57:48.060Z,95545.31
2023-03-11T03:01:51.967Z,95553.31
2023-03-11T03:05:53.045Z,95564.16
2023-03-11T03:09:53.694Z,95587.47
2023-03-11T03:13:54.241Z,95593.66
2023-03-11T03:17:57.552Z,95605.56
2023-03-11T03:21:58.197Z,95593.25
2023-03-11T03:25:58.848Z,95598.59
2023-03-11T03:29:59.535Z,95596.31
2023-03-11T03:34:02.988Z,95606.91
2023-03-11T03:38:06.977Z,95611.59
2023-03-11T03:42:08.035Z,95623.66
2023-03-11T03:46:13.641Z,95625.25
2023-03-11T03:50:21.301Z,95624.09
2023-03-11T03:54:23.864Z,95625.56
2023-03-11T03:58:24.321Z,95633.81
2023-03-11T04:02:28.128Z,95636.16
2023-03-11T04:06:32.715Z,95644.31
2023-03-11T04:10:39.041Z,95650.50
2023-03-11T04:14:39.704Z,95655.84
2023-03-11T04:18:40.071Z,95661.34
2023-03-11T04:22:44.443Z,95656.44
2023-03-11T04:26:45.741Z,95658.00
2023-03-11T04:30:49.567Z,95674.16
2023-03-11T04:34:50.875Z,95666.38
2023-03-11T04:38:55.364Z,95671.28
2023-03-11T04:42:57.083Z,95671.94
2023-03-11T04:46:58.584Z,95681.16
2023-03-11T04:50:59.974Z,95688.91
2023-03-11T04:55:05.586Z,95676.84
2023-03-11T04:59:06.468Z,95686.63
2023-03-11T05:03:09.294Z,95701.16
2023-03-11T05:07:10.283Z,95709.84
2023-03-11T05:11:14.392Z,95704.63
2023-03-11T05:15:17.467Z,95705.84
2023-03-11T05:19:30.471Z,95728.22
2023-03-11T05:23:31.594Z,95694.66
2023-03-11T05:27:35.667Z,95715.84
2023-03-11T05:31:39.093Z,95732.84
2023-03-11T05:35:39.578Z,95741.78
2023-03-11T05:39:40.941Z,95748.91
2023-03-11T05:43:44.708Z,95754.19
2023-03-11T05:47:46.031Z,95747.78
2023-03-11T05:51:48.790Z,95769.63
2023-03-11T05:55:58.307Z,95776.81
2023-03-11T06:00:03.729Z,95774.78
2023-03-11T06:04:14.797Z,95773.84
2023-03-11T06:08:16.411Z,95755.06
2023-03-11T06:12:17.386Z,95752.94
2023-03-11T06:16:28.630Z,95786.47
2023-03-11T06:20:34.132Z,95799.25
2023-03-11T06:24:34.621Z,95795.63
2023-03-11T06:28:37.126Z,95805.31
2023-03-11T06:32:40.856Z,95812.50
2023-03-11T06:36:41.941Z,95822.13
2023-03-11T06:40:42.766Z,95827.78
2023-03-11T06:44:43.451Z,95837.06
2023-03-11T06:48:47.997Z,95839.09
2023-03-11T06:52:50.193Z,95840.19
2023-03-11T06:56:50.642Z,95849.28
2023-03-11T07:00:52.081Z,95875.56
2023-03-11T07:04:58.439Z,95893.22
2023-03-11T07:08:59.295Z,95896.94
2023-03-11T07:13:00.305Z,95902.13
2023-03-11T07:17:00.674Z,95900.16
2023-03-11T07:21:11.942Z,95907.72
2023-03-11T07:25:13.181Z,95899.72
2023-03-11T07:29:14.079Z,95923.56
2023-03-11T07:33:14.545Z,95923.69
2023-03-11T07:37:17.827Z,95917.81
2023-03-11T07:41:18.913Z,95930.38
2023-03-11T07:45:20.163Z,95927.06
2023-03-11T07:49:21.419Z,95945.38
2023-03-11T07:53:25.218Z,95955.56
2023-03-11T07:57:25.775Z,95956.19
2023-03-11T08:01:30.728Z,95959.56
2023-03-11T08:05:31.102Z,95980.66
2023-03-11T08:09:34.091Z,95980.66
2023-03-11T08:13:34.682Z,95988.06
2023-03-11T08:17:35.088Z,95961.31
2023-03-11T08:21:35.639Z,95983.94
2023-03-11T08:25:42.120Z,96004.66
2023-03-11T08:29:42.856Z,96015.31
2023-03-11T08:33:43.639Z,96017.13
2023-03-11T08:37:44.535Z,96021.22
2023-03-11T08:41:47.660Z,96040.22
2023-03-11T08:45:51.368Z,96026.59
2023-03-11T08:49:54.349Z,96041.59
2023-03-11T08:53:57.340Z,96054.75
2023-03-11T08:58:00.964Z,96056.59
2023-03-11T09:02:01.598Z,96061.16
2023-03-11T09:06:04.257Z,96065.00
2023-03-11T09:10:05.304Z,96070.13
2023-03-11T09:14:09.491Z,96069.84
2023-03-11T09:18:10.517Z,96064.44
2023-03-11T09:22:11.105Z,96073.22
2023-03-11T09:26:11.731Z,96078.72
2023-03-11T09:30:17.312Z,96081.75
2023-03-11T09:34:17.897Z,96092.22
2023-03-11T09:38:18.559Z,96096.94
2023-03-11T09:42:30.510Z,96091.28
2023-03-11T09:47:03.328Z,96085.59
2023-03-11T09:51:13.387Z,96103.63
2023-03-11T09:55:35.240Z,96111.06
2023-03-11T09:59:44.172Z,96110.22
2023-03-11T10:03:50.148Z,96111.38
2023-03-11T10:08:05.511Z,96125.47
2023-03-11T10:12:38.657Z,96114.00
2023-03-11T10:16:58.024Z,96116.38
2023-03-11T10:21:14.382Z,96117.84
2023-03-11T10:25:22.357Z,96126.94
2023-03-11T10:29:30.891Z,96123.63
2023-03-11T10:33:40.433Z,96118.03
2023-03-11T10:37:52.065Z,96127.44
2023-03-11T10:41:57.909Z,96138.38
2023-03-11T10:45:58.605Z,96130.28
2023-03-11T10:49:58.941Z,96141.75
2023-03-11T10:54:05.860Z,96151.06
2023-03-11T10:58:17.572Z,96158.34
2023-03-11T11:02:33.167Z,96159.44
2023-03-11T11:06:37.044Z,96155.50
2023-03-11T11:10:52.588Z,96152.97
2023-03-11T11:14:56.106Z,96148.97
2023-03-11T11:19:06.905Z,96132.97
2023-03-11T11:23:07.447Z,96158.34
2023-03-11T11:27:21.231Z,96152.81
2023-03-11T11:31:28.783Z,96163.31
2023-03-11T11:35:29.484Z,96169.72
2023-03-11T11:39:35.066Z,96170.06
2023-03-11T11:43:54.332Z,96171.06
2023-03-11T11:48:00.818Z,96170.41
2023-03-11T11:52:09.464Z,96171.59
2023-03-11T11:56:10.010Z,96171.34
2023-03-11T12:00:25.034Z,96183.91
2023-03-11T12:04:47.218Z,96167.50
2023-03-11T12:09:00.743Z,96167.81
2023-03-11T12:13:41.276Z,96154.25
2023-03-11T12:17:50.302Z,96154.66
2023-03-11T12:22:20.793Z,96152.59
2023-03-11T12:26:25.505Z,96141.22
2023-03-11T12:30:31.530Z,96129.56
2023-03-11T12:34:38.290Z,96149.00
2023-03-11T12:38:42.904Z,96154.19
2023-03-11T12:42:44.074Z,96154.19
2023-03-11T12:47:24.938Z,96156.91
2023-03-11T12:52:04.781Z,96146.59
2023-03-11T12:56:33.772Z,96144.22
2023-03-11T13:00:57.800Z,96140.47
2023-03-11T13:05:08.208Z,96147.31
2023-03-11T13:09:18.966Z,96146.91
2023-03-11T13:13:43.574Z,96139.22
2023-03-11T13:17:43.816Z,96142.22
2023-03-11T13:21:43.897Z,96148.59
2023-03-11T13:26:04.643Z,96146.56
2023-03-11T13:30:18.532Z,96161.03
2023-03-11T13:34:25.617Z,96166.50
2023-03-11T13:39:15.072Z,96163.09
2023-03-11T13:43:22.520Z,96161.25
2023-03-11T13:47:25.277Z,96176.34
2023-03-11T13:51:42.653Z,96158.63
2023-03-11T13:55:49.168Z,96185.13
2023-03-11T13:59:56.706Z,96197.63
2023-03-11T14:03:56.912Z,96208.44
2023-03-11T14:07:57.379Z,96206.97
2023-03-11T14:12:11.084Z,96201.44
2023-03-11T14:16:30.199Z,96186.22
2023-03-11T14:20:35.938Z,96216.13
2023-03-11T14:25:01.640Z,96183.75
2023-03-11T14:29:27.826Z,96170.44
2023-03-11T14:33:47.538Z,96232.72
2023-03-11T14:37:56.673Z,96229.97
2023-03-11T14:42:13.901Z,96225.34
2023-03-11T14:46:34.965Z,96230.81
2023-03-11T14:50:56.264Z,96238.78
2023-03-11T14:55:07.674Z,96235.69
2023-03-11T14:59:42.541Z,96228.63
2023-03-11T15:04:00.225Z,96212.69
2023-03-11T15:08:11.114Z,96225.69
2023-03-11T15:12:35.752Z,96233.50
2023-03-11T15:16:40.070Z,96248.75
2023-03-11T15:20:41.179Z,96246.59
2023-03-11T15:30:29.362Z,96266.59
2023-03-11T15:35:05.463Z,96193.50
2023-03-11T15:39:59.120Z,96171.78
2023-03-11T15:44:03.078Z,96258.72
2023-03-11T15:48:06.598Z,96271.41
2023-03-11T15:52:07.520Z,96288.53
2023-03-11T15:56:24.730Z,96287.25
2023-03-11T16:00:50.979Z,96283.88
2023-03-11T16:04:56.457Z,96284.91
2023-03-11T16:08:57.876Z,96306.28
2023-03-11T16:12:58.470Z,96279.66
2023-03-11T16:16:59.076Z,96293.22
2023-03-11T16:21:02.329Z,96301.53
2023-03-11T16:25:04.091Z,96279.28
2023-03-11T16:29:18.224Z,96316.25
2023-03-11T16:33:19.349Z,96319.22
2023-03-11T16:37:23.303Z,96324.44
2023-03-11T16:41:23.472Z,96323.56
2023-03-11T16:45:24.667Z,96300.09
2023-03-11T16:49:30.209Z,96327.34
2023-03-11T16:53:34.132Z,96335.69
2023-03-11T16:57:35.013Z,96325.34
2023-03-11T17:01:39.446Z,96309.94
2023-03-11T17:05:39.637Z,96338.66
2023-03-11T17:09:42.434Z,96360.56
2023-03-11T17:13:42.523Z,96332.06
2023-03-11T17:17:42.678Z,96340.06
2023-03-11T17:21:43.042Z,96356.47
2023-03-11T17:25:46.182Z,96353.44
2023-03-11T17:29:46.282Z,96368.78
2023-03-11T17:33:47.531Z,96374.44
2023-03-11T17:37:47.522Z,96384.72
2023-03-11T17:41:50.342Z,96395.19
2023-03-11T17:45:50.523Z,96403.53
2023-03-11T17:49:52.007Z,96405.34
2023-03-11T17:53:53.028Z,96413.22
2023-03-11T17:57:55.708Z,96388.81
2023-03-11T18:01:55.888Z,96431.03
2023-03-11T18:06:01.208Z,96421.91
2023-03-11T18:10:01.288Z,96438.84
2023-03-11T18:14:04.291Z,96443.75
2023-03-11T18:18:04.365Z,96431.81
2023-03-11T18:22:05.327Z,96440.13
2023-03-11T18:26:08.820Z,96448.22
2023-03-11T18:30:14.577Z,96459.75
2023-03-11T18:34:15.118Z,96427.06
2023-03-11T18:38:15.259Z,96460.81
2023-03-11T18:42:16.045Z,96428.53
2023-03-11T18:46:19.497Z,96451.13
2023-03-11T18:50:20.725Z,96457.16
2023-03-11T18:54:21.324Z,96449.91
2023-03-11T18:58:28.156Z,96469.47
2023-03-11T19:02:40.177Z,96471.31
2023-03-11T19:06:48.397Z,96475.34
2023-03-11T19:10:52.168Z,96477.97
2023-03-11T19:14:59.522Z,96478.56
2023-03-11T19:19:02.595Z,96484.19
2023-03-11T19:23:02.726Z,96484.97
2023-03-11T19:27:02.910Z,96491.38
2023-03-11T19:31:03.373Z,96470.75
2023-03-11T19:35:06.826Z,96486.84
2023-03-11T19:39:07.347Z,96479.94
2023-03-11T19:43:07.507Z,96458.16
2023-03-11T19:47:07.912Z,96480.50
2023-03-11T19:51:14.347Z,96452.94
2023-03-11T19:55:20.606Z,96485.19
2023-03-11T19:59:22.456Z,96429.50
2023-03-11T20:03:27.611Z,96491.59
2023-03-11T20:07:34.903Z,96495.69
2023-03-11T20:11:36.648Z,96485.09
2023-03-11T20:15:38.714Z,96481.63
2023-03-11T20:19:40.287Z,96490.97
2023-03-11T20:23:45.791Z,96498.19
2023-03-11T20:27:48.039Z,96377.13
2023-03-11T20:31:51.919Z,96476.47
2023-03-11T20:36:00.363Z,96450.84
2023-03-11T20:40:07.448Z,96434.56
2023-03-11T20:44:12.522Z,96509.44
2023-03-11T20:48:20.053Z,96501.28
2023-03-11T20:52:21.707Z,96500.97
2023-03-11T20:56:36.539Z,96431.88
2023-03-11T21:00:39.507Z,96365.66
2023-03-11T21:04:49.303Z,96423.78
2023-03-11T21:08:51.422Z,96498.84
2023-03-11T21:12:56.079Z,96520.47
2023-03-11T21:17:02.537Z,96518.53
2023-03-11T21:21:12.620Z,96496.84
2023-03-11T21:25:25.604Z,96521.94
2023-03-11T21:29:34.027Z,96523.69
2023-03-11T21:33:35.676Z,96534.63
2023-03-11T21:37:37.762Z,96534.28
2023-03-11T21:41:43.577Z,96534.91
2023-03-11T21:45:47.820Z,96531.72
2023-03-11T21:49:48.156Z,96535.91
2023-03-11T21:53:49.686Z,96528.56
2023-03-11T21:57:50.606Z,96535.03
2023-03-11T22:01:53.522Z,96532.94
2023-03-11T22:06:00.447Z,96534.84
2023-03-11T22:10:00.675Z,96524.16
2023-03-11T22:14:01.157Z,96526.81
2023-03-11T22:18:04.212Z,96531.78
2023-03-11T22:22:04.463Z,96536.91
2023-03-11T22:26:05.543Z,96546.66
2023-03-11T22:30:05.964Z,96549.59
2023-03-11T22:34:08.773Z,96537.00
2023-03-11T22:38:08.980Z,96554.91
2023-03-11T22:42:09.903Z,96566.16
2023-03-11T22:46:10.535Z,96563.34
2023-03-11T22:50:14.457Z,96569.13
2023-03-11T22:54:15.004Z,96536.59
2023-03-11T22:58:15.780Z,96564.75
2023-03-11T23:02:15.981Z,96569.97
2023-03-11T23:06:22.524Z,96547.97
2023-03-11T23:10:24.017Z,96556.25
2023-03-11T23:14:37.835Z,96503.72
2023-03-11T23:18:47.965Z,96409.25
2023-03-11T23:22:54.724Z,96543.16
2023-03-11T23:26:55.977Z,96586.38
2023-03-11T23:30:57.769Z,96560.47
2023-03-11T23:35:01.967Z,96576.81
2023-03-11T23:39:10.105Z,96581.44
2023-03-11T23:43:15.718Z,96517.59
2023-03-11T23:47:17.006Z,96562.78
2023-03-11T23:51:19.422Z,96568.22
2023-03-11T23:55:23.829Z,96581.91
2023-03-11T23:59:27.664Z,96589.19
